Time;durP1;ratioP1;P1;durP2;ratioP2;P2;SDS_P1;SDS_P2;PMS_P1;PMS_P2;Temp;Humidity;BMP_temperature;BMP_pressure;BME280_temperature;BME280_humidity;BME280_pressure;Samples;Min_cycle;Max_cycle;Signal;HPM_P1;HPM_P2
2022/12/10 00:01:24;;;;;;;27.35;22.15;;;1.20;99.90;;;;;;5070463;28;20533;-69
2022/12/10 00:03:50;;;;;;;28.02;23.20;;;1.20;99.90;;;;;;5076381;28;20388;-69
2022/12/10 00:06:18;;;;;;;26.60;22.57;;;1.20;99.90;;;;;;5068217;28;20394;-69
2022/12/10 00:08:44;;;;;;;30.57;22.60;;;1.30;99.90;;;;;;5069883;28;20382;-69
2022/12/10 00:11:11;;;;;;;29.77;22.17;;;1.30;99.90;;;;;;5069810;28;20742;-69
2022/12/10 00:13:38;;;;;;;27.38;22.42;;;1.30;99.90;;;;;;5051575;28;20383;-69
2022/12/10 00:16:07;;;;;;;27.52;22.88;;;1.20;99.90;;;;;;5051892;28;20404;-69
2022/12/10 00:18:33;;;;;;;28.20;23.20;;;1.20;99.90;;;;;;5069612;28;20385;-69
2022/12/10 00:21:11;;;;;;;24.00;20.63;;;1.40;99.90;;;;;;5066843;28;20388;-70
2022/12/10 00:23:37;;;;;;;28.67;22.20;;;1.40;99.90;;;;;;5068937;28;20396;-70
2022/12/10 00:26:17;;;;;;;26.05;22.08;;;1.50;99.90;;;;;;5067292;28;20384;-70
2022/12/10 00:28:44;;;;;;;27.67;21.98;;;1.60;99.90;;;;;;5068726;28;20470;-68
2022/12/10 00:31:19;;;;;;;28.88;22.70;;;1.40;99.90;;;;;;5066931;28;20398;-68
2022/12/10 00:33:45;;;;;;;27.93;22.30;;;1.60;99.90;;;;;;5066566;28;20587;-68
2022/12/10 00:36:14;;;;;;;24.37;21.30;;;1.70;99.90;;;;;;5070118;28;20411;-68
2022/12/10 00:38:40;;;;;;;26.23;21.45;;;1.70;99.90;;;;;;5070199;28;20458;-68
2022/12/10 00:41:06;;;;;;;26.55;21.08;;;1.80;99.90;;;;;;5069282;28;20558;-68
2022/12/10 00:43:32;;;;;;;26.15;20.90;;;1.70;99.90;;;;;;5069125;28;20392;-69
2022/12/10 00:45:58;;;;;;;27.42;22.23;;;1.60;99.90;;;;;;5070131;28;20384;-69
2022/12/10 00:48:24;;;;;;;30.10;22.65;;;1.70;99.90;;;;;;5070150;28;20379;-68
2022/12/10 00:50:57;;;;;;;26.00;22.05;;;1.60;99.90;;;;;;5069664;28;20985;-69
2022/12/10 00:53:24;;;;;;;28.50;22.63;;;1.50;99.90;;;;;;5069472;28;20411;-68
2022/12/10 00:55:51;;;;;;;29.58;23.20;;;1.60;99.90;;;;;;5069814;28;20418;-69
2022/12/10 00:58:16;;;;;;;26.97;23.07;;;1.50;99.90;;;;;;5070088;28;20380;-70
2022/12/10 01:00:42;;;;;;;27.70;22.27;;;1.40;99.90;;;;;;5070044;28;20570;-69
2022/12/10 01:03:08;;;;;;;27.40;22.20;;;1.50;99.90;;;;;;5069496;28;20404;-70
2022/12/10 01:05:33;;;;;;;26.10;21.80;;;1.60;99.90;;;;;;5070254;28;20471;-70
2022/12/10 01:07:58;;;;;;;25.40;21.30;;;1.60;99.90;;;;;;5070002;28;20441;-69
2022/12/10 01:10:24;;;;;;;27.53;21.77;;;1.50;99.90;;;;;;5069425;28;20835;-68
2022/12/10 01:12:49;;;;;;;27.80;21.53;;;1.60;99.90;;;;;;5069173;28;20932;-68
2022/12/10 01:15:15;;;;;;;27.27;21.03;;;1.50;99.90;;;;;;5069840;28;20431;-68
2022/12/10 01:17:40;;;;;;;26.40;21.03;;;1.60;99.90;;;;;;5069883;28;20404;-69
2022/12/10 01:20:06;;;;;;;29.70;22.20;;;1.50;99.90;;;;;;5072289;28;20453;-69
2022/12/10 01:22:32;;;;;;;26.80;21.67;;;1.60;99.90;;;;;;5073547;28;20683;-68
2022/12/10 01:24:57;;;;;;;27.58;20.98;;;1.70;99.90;;;;;;5073337;28;20384;-68
2022/12/10 01:27:23;;;;;;;26.58;21.63;;;1.70;99.90;;;;;;5074172;28;20383;-69
2022/12/10 01:29:48;;;;;;;27.00;23.85;;;1.60;99.90;;;;;;5074418;28;20391;-69
2022/12/10 01:32:14;;;;;;;31.02;23.85;;;1.30;99.90;;;;;;5073523;28;20777;-69
2022/12/10 01:34:39;;;;;;;28.38;23.20;;;1.20;99.90;;;;;;5073269;28;20796;-69
2022/12/10 01:37:05;;;;;;;31.88;24.65;;;1.40;99.90;;;;;;5073710;28;20400;-69
2022/12/10 01:39:31;;;;;;;26.73;22.38;;;1.60;99.90;;;;;;5073565;28;20391;-68
2022/12/10 01:41:59;;;;;;;29.00;23.50;;;1.50;99.90;;;;;;5073756;28;20376;-70
2022/12/10 01:44:24;;;;;;;26.33;22.77;;;1.60;99.90;;;;;;5070377;28;20848;-70
2022/12/10 01:46:52;;;;;;;26.40;21.25;;;1.50;99.90;;;;;;5072380;28;20427;-67
2022/12/10 01:49:31;;;;;;;25.92;22.83;;;1.50;99.90;;;;;;5072953;28;20797;-68
2022/12/10 01:51:56;;;;;;;26.98;21.75;;;1.50;99.90;;;;;;5070707;28;20807;-68
2022/12/10 01:54:28;;;;;;;26.55;21.33;;;1.70;99.90;;;;;;5072394;28;20499;-69
2022/12/10 01:57:00;;;;;;;24.45;21.15;;;1.70;99.90;;;;;;5073419;28;20411;-69
2022/12/10 01:59:26;;;;;;;27.63;21.98;;;1.70;99.90;;;;;;5072889;28;20439;-70
2022/12/10 02:02:21;;;;;;;28.15;22.23;;;1.70;99.90;;;;;;5069215;28;20478;-68
2022/12/10 02:04:59;;;;;;;25.65;21.88;;;1.60;99.90;;;;;;5054590;28;20406;-69
2022/12/10 02:07:53;;;;;;;31.58;23.20;;;1.60;99.90;;;;;;5071841;28;20429;-68
2022/12/10 02:10:49;;;;;;;30.60;23.65;;;1.60;99.90;;;;;;5052953;28;20478;-69
2022/12/10 02:13:18;;;;;;;30.90;23.90;;;1.50;99.90;;;;;;5072140;28;20410;-68
2022/12/10 02:16:07;;;;;;;28.60;22.00;;;1.60;99.90;;;;;;5072513;28;20381;-68
2022/12/10 02:18:38;;;;;;;30.67;22.42;;;1.60;99.90;;;;;;5046957;28;20379;-69
2022/12/10 02:21:12;;;;;;;26.55;22.35;;;1.60;99.90;;;;;;5072646;28;20391;-69
2022/12/10 02:23:54;;;;;;;29.90;23.00;;;1.60;99.90;;;;;;5072049;28;20472;-69
2022/12/10 02:26:27;;;;;;;26.83;21.90;;;1.60;99.90;;;;;;5072612;28;20382;-69
2022/12/10 02:29:13;;;;;;;28.87;23.03;;;1.60;99.90;;;;;;5072661;28;20437;-69
2022/12/10 02:31:47;;;;;;;28.55;24.15;;;1.60;99.90;;;;;;5070982;28;20473;-69
2022/12/10 02:34:14;;;;;;;31.77;25.27;;;1.40;99.90;;;;;;5071717;28;20421;-69
2022/12/10 02:36:43;;;;;;;30.47;23.77;;;1.40;99.90;;;;;;5072493;28;20940;-69
2022/12/10 02:39:12;;;;;;;29.50;23.20;;;1.50;99.90;;;;;;5072562;28;20374;-69
2022/12/10 02:41:42;;;;;;;30.73;24.90;;;1.40;99.90;;;;;;5071995;28;20407;-69
2022/12/10 02:44:10;;;;;;;28.87;22.57;;;1.50;99.90;;;;;;5053651;28;20874;-69
2022/12/10 02:46:38;;;;;;;27.70;21.70;;;1.50;99.90;;;;;;5072323;28;20386;-69
2022/12/10 02:49:05;;;;;;;27.42;23.10;;;1.60;99.90;;;;;;5072017;28;20402;-69
2022/12/10 02:51:31;;;;;;;28.83;23.10;;;1.60;99.90;;;;;;5071861;28;20742;-70
2022/12/10 02:54:05;;;;;;;28.07;23.30;;;1.50;99.90;;;;;;5071413;28;20395;-69
2022/12/10 02:56:36;;;;;;;27.75;22.05;;;1.60;99.90;;;;;;5063745;28;20410;-69
2022/12/10 02:59:27;;;;;;;28.10;22.67;;;1.50;99.90;;;;;;5071930;28;20951;-68
2022/12/10 03:02:02;;;;;;;31.83;25.02;;;1.50;99.90;;;;;;5072509;28;20387;-68
2022/12/10 03:04:52;;;;;;;24.85;22.15;;;1.50;99.90;;;;;;5071540;28;20498;-68
2022/12/10 03:07:30;;;;;;;31.15;23.42;;;1.60;99.90;;;;;;5072071;28;20375;-68
2022/12/10 03:10:03;;;;;;;31.50;23.90;;;1.50;99.90;;;;;;5071859;28;20395;-69
2022/12/10 03:12:34;;;;;;;28.38;22.52;;;1.40;99.90;;;;;;5071597;28;20410;-68
2022/12/10 03:15:04;;;;;;;25.27;21.45;;;1.40;99.90;;;;;;5071872;28;20380;-69
2022/12/10 03:17:32;;;;;;;28.60;23.42;;;1.40;99.90;;;;;;5071385;28;20643;-69
2022/12/10 03:19:58;;;;;;;26.58;22.55;;;1.40;99.90;;;;;;5071345;28;20391;-69
2022/12/10 03:22:24;;;;;;;27.38;23.02;;;1.40;99.90;;;;;;5071431;28;20866;-70
2022/12/10 03:24:50;;;;;;;27.17;22.10;;;1.50;99.90;;;;;;5071167;28;20391;-69
2022/12/10 03:27:19;;;;;;;24.77;21.27;;;1.50;99.90;;;;;;5071345;28;20398;-69
2022/12/10 03:29:50;;;;;;;25.98;22.63;;;1.50;99.90;;;;;;5071586;28;20958;-69
2022/12/10 03:32:17;;;;;;;26.00;21.48;;;1.50;99.90;;;;;;5071720;28;20453;-69
2022/12/10 03:34:44;;;;;;;31.60;23.63;;;1.40;99.90;;;;;;5070988;28;20374;-69
2022/12/10 03:37:11;;;;;;;27.05;21.88;;;1.40;99.90;;;;;;5071644;28;20403;-69
2022/12/10 03:39:37;;;;;;;27.10;22.10;;;1.30;99.90;;;;;;5053252;28;20392;-69
2022/12/10 03:42:04;;;;;;;28.75;22.77;;;1.30;99.90;;;;;;5070995;28;20960;-69
2022/12/10 03:44:32;;;;;;;28.10;23.77;;;1.40;99.90;;;;;;5070398;28;20793;-70
2022/12/10 03:46:59;;;;;;;26.00;22.85;;;1.40;99.90;;;;;;5071191;28;20791;-68
2022/12/10 03:49:24;;;;;;;27.40;22.17;;;1.40;99.90;;;;;;5070799;28;20971;-69
2022/12/10 03:51:50;;;;;;;26.30;22.57;;;1.50;99.90;;;;;;5070946;28;20502;-68
2022/12/10 03:54:16;;;;;;;27.30;22.77;;;1.50;99.90;;;;;;5070455;28;20427;-69
2022/12/10 03:56:41;;;;;;;25.77;21.92;;;1.40;99.90;;;;;;5070968;28;20743;-69
2022/12/10 03:59:07;;;;;;;25.70;21.58;;;1.50;99.90;;;;;;5070821;28;20797;-69
2022/12/10 04:01:32;;;;;;;29.17;22.90;;;1.50;99.90;;;;;;5071172;28;20372;-68
2022/12/10 04:03:58;;;;;;;27.23;22.15;;;1.50;99.90;;;;;;5070537;28;20391;-68
2022/12/10 04:06:24;;;;;;;27.50;22.65;;;1.40;99.90;;;;;;5063196;28;20385;-69
2022/12/10 04:08:51;;;;;;;29.52;21.95;;;1.40;99.90;;;;;;5070387;28;20400;-69
2022/12/10 04:11:17;;;;;;;29.45;22.98;;;1.30;99.90;;;;;;5070539;28;20392;-69
2022/12/10 04:16:28;;;;;;;30.63;23.92;;;1.20;99.90;;;;;;5070882;28;20473;-69
2022/12/10 04:18:56;;;;;;;25.80;22.25;;;1.30;99.90;;;;;;5070269;28;20402;-69
2022/12/10 04:27:20;;;;;;;24.02;21.25;;;1.50;99.90;;;;;;5064345;28;20456;-69
2022/12/10 04:29:46;;;;;;;25.95;21.10;;;1.50;99.90;;;;;;5070388;28;20472;-69
2022/12/10 04:32:11;;;;;;;26.23;21.00;;;1.40;99.90;;;;;;5070812;28;20833;-69
2022/12/10 04:34:37;;;;;;;28.30;22.50;;;1.40;99.90;;;;;;5069969;28;20437;-69
2022/12/10 04:37:03;;;;;;;24.00;21.20;;;1.50;99.90;;;;;;5070338;28;20496;-69
2022/12/10 04:39:29;;;;;;;24.13;21.33;;;1.40;99.90;;;;;;5070896;28;20380;-69
2022/12/10 04:41:55;;;;;;;24.08;20.98;;;1.40;99.90;;;;;;5070616;28;20376;-69
2022/12/10 04:44:21;;;;;;;23.95;20.10;;;1.30;99.90;;;;;;5069967;28;20407;-69
2022/12/10 04:46:47;;;;;;;26.23;21.40;;;1.30;99.90;;;;;;5070537;28;20480;-69
2022/12/10 04:49:13;;;;;;;28.30;22.80;;;1.30;99.90;;;;;;5070452;28;20385;-69
2022/12/10 04:51:40;;;;;;;23.30;20.15;;;1.20;99.90;;;;;;5070458;28;20525;-69
2022/12/10 04:54:05;;;;;;;27.90;22.50;;;1.20;99.90;;;;;;5069095;28;20367;-69
2022/12/10 04:56:32;;;;;;;26.90;21.70;;;1.50;99.90;;;;;;5070180;28;20908;-69
2022/12/10 04:58:58;;;;;;;24.57;20.80;;;1.60;99.90;;;;;;5062622;28;20479;-69
2022/12/10 05:01:24;;;;;;;26.35;21.33;;;1.50;99.90;;;;;;5070266;28;20399;-69
2022/12/10 05:03:50;;;;;;;25.80;20.77;;;1.50;99.90;;;;;;5068067;28;20751;-69
2022/12/10 05:06:17;;;;;;;25.60;21.27;;;1.50;99.90;;;;;;5070080;28;20383;-70
2022/12/10 05:08:44;;;;;;;25.83;20.38;;;1.70;99.90;;;;;;5068829;28;20423;-70
2022/12/10 05:11:13;;;;;;;25.50;20.60;;;1.50;99.90;;;;;;5070176;28;20426;-69
2022/12/10 05:13:39;;;;;;;25.13;20.83;;;1.60;99.90;;;;;;5069601;28;20873;-70
2022/12/10 05:16:07;;;;;;;22.88;19.75;;;1.60;99.90;;;;;;5070485;28;20384;-70
2022/12/10 05:18:33;;;;;;;24.77;19.70;;;1.50;99.90;;;;;;5069811;28;20865;-70
2022/12/10 05:21:00;;;;;;;24.58;20.80;;;1.50;99.90;;;;;;5052272;28;20392;-70
2022/12/10 05:23:29;;;;;;;24.10;19.92;;;1.70;99.90;;;;;;5069447;28;20387;-70
2022/12/10 05:26:07;;;;;;;22.83;19.15;;;1.70;99.90;;;;;;5070365;28;20380;-70
2022/12/10 05:28:35;;;;;;;23.20;20.25;;;1.70;99.90;;;;;;5070044;28;20395;-70
2022/12/10 05:31:01;;;;;;;23.80;19.53;;;1.70;99.90;;;;;;5069936;28;20438;-70
2022/12/10 05:33:27;;;;;;;21.52;19.23;;;1.70;99.90;;;;;;5069400;28;20800;-70
2022/12/10 05:35:59;;;;;;;24.67;19.13;;;1.60;99.90;;;;;;5069884;28;20474;-70
2022/12/10 05:38:26;;;;;;;22.77;18.85;;;1.60;99.90;;;;;;5070005;28;20391;-70
2022/12/10 05:40:51;;;;;;;24.80;20.85;;;1.70;99.90;;;;;;5070167;28;20715;-70
2022/12/10 05:43:17;;;;;;;24.55;20.80;;;1.70;99.90;;;;;;5069068;28;20393;-69
2022/12/10 05:45:43;;;;;;;25.05;20.40;;;1.60;99.90;;;;;;5070067;28;20380;-70
2022/12/10 05:48:13;;;;;;;24.60;20.40;;;1.70;99.90;;;;;;5069209;28;20766;-70
2022/12/10 05:50:38;;;;;;;25.08;20.08;;;1.60;99.90;;;;;;5069373;28;20395;-70
2022/12/10 05:53:04;;;;;;;26.25;19.70;;;1.70;99.90;;;;;;5068675;28;20901;-70
2022/12/10 05:55:31;;;;;;;25.98;20.00;;;1.70;99.90;;;;;;5069702;28;20472;-70
2022/12/10 05:57:57;;;;;;;25.60;20.92;;;1.50;99.90;;;;;;5069436;28;20926;-70
2022/12/10 06:00:23;;;;;;;25.60;21.70;;;1.60;99.90;;;;;;5069994;28;20475;-70
2022/12/10 06:02:50;;;;;;;25.73;21.25;;;1.60;99.90;;;;;;5051144;28;20905;-69
2022/12/10 06:05:16;;;;;;;24.50;20.35;;;1.60;99.90;;;;;;5070395;28;20376;-70
2022/12/10 06:07:41;;;;;;;25.55;21.20;;;1.60;99.90;;;;;;5069221;28;20778;-69
2022/12/10 06:10:07;;;;;;;23.33;20.83;;;1.50;99.90;;;;;;5065112;28;20408;-70
2022/12/10 06:12:33;;;;;;;25.42;20.85;;;1.40;99.90;;;;;;5072698;28;20418;-70
2022/12/10 06:14:58;;;;;;;26.60;22.03;;;1.40;99.90;;;;;;5072510;28;20391;-70
2022/12/10 06:17:24;;;;;;;25.53;21.63;;;1.40;99.90;;;;;;5070084;28;20411;-71
2022/12/10 06:19:49;;;;;;;23.63;20.87;;;1.40;99.90;;;;;;5072678;28;20388;-70
2022/12/10 06:22:15;;;;;;;21.60;19.30;;;1.30;99.90;;;;;;5072726;28;20973;-70
2022/12/10 06:24:40;;;;;;;24.50;20.10;;;1.30;99.90;;;;;;5069950;28;20395;-70
2022/12/10 06:27:06;;;;;;;28.10;22.60;;;1.20;99.90;;;;;;5057305;28;20430;-70
2022/12/10 06:29:31;;;;;;;26.10;20.27;;;1.20;99.90;;;;;;5054920;28;20888;-71
2022/12/10 06:31:57;;;;;;;24.17;20.33;;;1.30;99.90;;;;;;5072660;28;20520;-71
2022/12/10 06:34:22;;;;;;;25.50;21.33;;;1.40;99.90;;;;;;5071705;28;20896;-71
2022/12/10 06:36:48;;;;;;;25.60;22.27;;;1.40;99.90;;;;;;5055519;28;20429;-70
2022/12/10 06:39:14;;;;;;;24.20;20.80;;;1.40;99.90;;;;;;5072862;28;20384;-70
2022/12/10 06:41:43;;;;;;;23.53;19.27;;;1.40;99.90;;;;;;5072316;28;20380;-70
2022/12/10 06:44:10;;;;;;;23.98;20.40;;;1.30;99.90;;;;;;5071258;28;20395;-70
2022/12/10 06:46:36;;;;;;;24.25;20.73;;;1.10;99.90;;;;;;5072122;28;20384;-70
2022/12/10 06:49:02;;;;;;;25.67;20.60;;;1.30;99.90;;;;;;5072525;28;20392;-70
2022/12/10 06:51:28;;;;;;;24.23;19.75;;;1.20;99.90;;;;;;5072936;28;20931;-71
2022/12/10 06:53:54;;;;;;;24.85;19.92;;;1.10;99.90;;;;;;5047088;28;20409;-71
2022/12/10 06:56:19;;;;;;;23.70;19.50;;;1.20;99.90;;;;;;5067070;28;20459;-71
2022/12/10 06:58:45;;;;;;;25.07;20.33;;;1.10;99.90;;;;;;5071970;28;20387;-70
2022/12/10 07:01:20;;;;;;;23.40;19.40;;;1.10;99.90;;;;;;5071770;28;20394;-70
2022/12/10 07:03:51;;;;;;;23.83;19.02;;;1.10;99.90;;;;;;5050545;28;20395;-71
2022/12/10 07:06:17;;;;;;;24.38;19.17;;;1.10;99.90;;;;;;5071531;28;20375;-72
2022/12/10 07:08:42;;;;;;;24.92;21.10;;;1.20;99.90;;;;;;5071931;28;20395;-71
2022/12/10 07:11:10;;;;;;;25.63;20.52;;;1.20;99.90;;;;;;5071373;28;20445;-70
2022/12/10 07:13:36;;;;;;;23.52;18.90;;;1.20;99.90;;;;;;5073384;28;20442;-71
2022/12/10 07:16:10;;;;;;;24.20;18.88;;;1.10;99.90;;;;;;5074872;28;20422;-71
2022/12/10 07:18:36;;;;;;;27.17;20.60;;;1.20;99.90;;;;;;5079306;28;20487;-71
2022/12/10 07:21:01;;;;;;;26.73;19.23;;;1.10;99.90;;;;;;5083173;28;20899;-70
2022/12/10 07:23:27;;;;;;;25.43;20.20;;;1.10;99.90;;;;;;5088592;28;20416;-70
2022/12/10 07:25:54;;;;;;;26.57;19.70;;;1.20;99.90;;;;;;5072032;28;20426;-70
2022/12/10 07:28:20;;;;;;;29.00;21.45;;;1.10;99.90;;;;;;5072040;28;20372;-70
2022/12/10 07:30:45;;;;;;;28.42;20.58;;;1.20;99.90;;;;;;5071884;28;20793;-70
2022/12/10 07:33:11;;;;;;;26.02;20.23;;;1.30;99.90;;;;;;5071132;28;20368;-70
2022/12/10 07:35:39;;;;;;;30.30;21.08;;;1.20;99.90;;;;;;5071655;28;20391;-70
2022/12/10 07:38:04;;;;;;;30.33;21.15;;;1.20;99.90;;;;;;5071453;28;20812;-70
2022/12/10 07:40:30;;;;;;;29.23;20.20;;;1.10;99.90;;;;;;5063499;28;20383;-70
2022/12/10 07:42:57;;;;;;;30.00;20.90;;;1.10;99.90;;;;;;5070963;28;20503;-71
2022/12/10 07:45:22;;;;;;;30.67;21.53;;;1.20;99.90;;;;;;5071512;28;20435;-70
2022/12/10 07:47:48;;;;;;;31.23;20.67;;;1.30;99.90;;;;;;5071971;28;20390;-70
2022/12/10 07:50:13;;;;;;;27.83;20.30;;;1.20;99.90;;;;;;5071491;28;20402;-70
2022/12/10 07:52:42;;;;;;;27.73;20.00;;;1.20;99.90;;;;;;5052597;28;20666;-71
2022/12/10 07:55:08;;;;;;;29.63;20.58;;;1.20;99.90;;;;;;5071049;28;20392;-70
2022/12/10 07:57:33;;;;;;;28.30;20.00;;;1.20;99.90;;;;;;5071382;28;20898;-70
2022/12/10 07:59:59;;;;;;;31.50;21.80;;;1.20;99.90;;;;;;5071355;28;20391;-70
2022/12/10 08:02:24;;;;;;;31.00;21.02;;;1.20;99.90;;;;;;5070925;28;20376;-69
2022/12/10 08:04:50;;;;;;;29.25;21.20;;;1.20;99.90;;;;;;5052623;28;20970;-70
2022/12/10 08:07:15;;;;;;;31.87;21.03;;;1.20;99.90;;;;;;5063245;28;20961;-70
2022/12/10 08:09:41;;;;;;;29.60;20.73;;;1.20;99.90;;;;;;5053083;28;20446;-70
2022/12/10 08:12:07;;;;;;;29.70;20.97;;;1.20;99.90;;;;;;5070464;28;20456;-70
2022/12/10 08:14:32;;;;;;;29.67;21.17;;;1.30;99.90;;;;;;5069534;28;20387;-71
2022/12/10 08:16:58;;;;;;;28.07;19.60;;;1.30;99.90;;;;;;5070174;28;20414;-71
2022/12/10 08:19:23;;;;;;;28.30;20.10;;;1.20;99.90;;;;;;5070453;28;20387;-71
2022/12/10 08:21:49;;;;;;;29.00;20.37;;;1.20;99.90;;;;;;5070777;28;20384;-71
2022/12/10 08:24:14;;;;;;;29.13;19.97;;;1.30;99.90;;;;;;5069965;28;20380;-71
2022/12/10 08:26:40;;;;;;;30.00;20.03;;;1.30;99.90;;;;;;5070648;28;20403;-70
2022/12/10 08:29:05;;;;;;;30.93;20.37;;;1.40;99.90;;;;;;5070217;28;20380;-71
2022/12/10 08:31:31;;;;;;;26.10;18.30;;;1.40;99.90;;;;;;5070918;28;20390;-71
2022/12/10 08:33:56;;;;;;;24.60;17.73;;;1.20;99.90;;;;;;5069830;28;20384;-70
2022/12/10 08:36:22;;;;;;;28.20;18.63;;;1.20;99.90;;;;;;5070153;28;20960;-70
2022/12/10 08:38:48;;;;;;;31.40;19.63;;;1.10;99.90;;;;;;5070460;28;20387;-70
2022/12/10 08:41:17;;;;;;;28.90;19.88;;;1.30;99.90;;;;;;5070475;28;20458;-71
2022/12/10 08:43:43;;;;;;;27.83;18.80;;;1.30;99.90;;;;;;5069708;28;20386;-71
2022/12/10 08:46:11;;;;;;;28.58;19.83;;;1.20;99.90;;;;;;5052484;28;20407;-71
2022/12/10 08:48:37;;;;;;;28.60;19.17;;;1.30;99.90;;;;;;5070316;28;20447;-71
2022/12/10 08:51:05;;;;;;;27.98;19.52;;;1.30;99.90;;;;;;5051709;28;20486;-71
2022/12/10 08:53:30;;;;;;;32.50;22.40;;;1.20;99.90;;;;;;5068764;28;20380;-71
2022/12/10 08:55:56;;;;;;;30.90;21.30;;;1.20;99.90;;;;;;5069775;28;20781;-70
2022/12/10 08:58:22;;;;;;;30.90;20.47;;;1.30;99.90;;;;;;5069538;28;20407;-72
2022/12/10 09:00:48;;;;;;;29.53;19.13;;;1.20;99.90;;;;;;5068868;28;20375;-71
2022/12/10 09:03:14;;;;;;;31.07;20.33;;;1.20;99.90;;;;;;5068570;28;20383;-70
2022/12/10 09:05:40;;;;;;;32.85;21.65;;;1.20;99.90;;;;;;5069751;28;20904;-71
2022/12/10 09:08:06;;;;;;;28.17;20.17;;;1.30;99.90;;;;;;5070452;28;20426;-70
2022/12/10 09:10:32;;;;;;;29.83;19.60;;;1.30;99.90;;;;;;5070067;28;20386;-71
2022/12/10 09:12:57;;;;;;;32.60;21.13;;;1.20;99.90;;;;;;5069479;28;20419;-71
2022/12/10 09:15:23;;;;;;;30.33;20.43;;;1.30;99.90;;;;;;5069791;28;20893;-71
2022/12/10 09:17:48;;;;;;;28.00;19.67;;;1.30;99.90;;;;;;5070185;28;20412;-70
2022/12/10 09:20:14;;;;;;;29.60;19.47;;;1.10;99.90;;;;;;5070218;28;20384;-71
2022/12/10 09:22:39;;;;;;;30.90;20.97;;;1.40;99.90;;;;;;5065195;28;20777;-71
2022/12/10 09:25:07;;;;;;;31.97;21.27;;;1.40;99.90;;;;;;5069759;28;20412;-71
2022/12/10 09:27:33;;;;;;;31.85;21.42;;;1.30;99.90;;;;;;5069743;28;20424;-71
2022/12/10 09:29:58;;;;;;;30.73;20.50;;;1.40;99.90;;;;;;5070155;28;20415;-71
2022/12/10 09:32:24;;;;;;;30.97;21.00;;;1.30;99.90;;;;;;5069539;28;20398;-70
2022/12/10 09:34:53;;;;;;;33.22;21.10;;;1.30;99.90;;;;;;5069556;28;20895;-71
2022/12/10 09:37:19;;;;;;;34.67;21.20;;;1.40;99.90;;;;;;5069527;28;20954;-71
2022/12/10 09:39:44;;;;;;;34.85;22.55;;;1.40;99.90;;;;;;5070306;28;20447;-71
2022/12/10 09:42:22;;;;;;;36.08;21.55;;;1.30;99.90;;;;;;5067718;28;20533;-72
2022/12/10 09:45:10;;;;;;;34.60;21.42;;;1.40;99.90;;;;;;5072416;28;20387;-72
2022/12/10 09:47:45;;;;;;;36.88;21.95;;;1.20;99.90;;;;;;5049457;28;20497;-72
2022/12/10 09:50:25;;;;;;;39.35;22.98;;;1.30;99.90;;;;;;5074160;28;20444;-72
2022/12/10 09:52:52;;;;;;;39.50;23.77;;;1.40;99.90;;;;;;5050174;28;20558;-72
2022/12/10 09:55:26;;;;;;;40.07;24.13;;;1.30;99.90;;;;;;5072281;28;20426;-72
2022/12/10 09:57:53;;;;;;;37.72;23.52;;;1.20;99.90;;;;;;5073431;28;20400;-73
2022/12/10 10:00:18;;;;;;;43.20;25.48;;;1.20;99.90;;;;;;5073718;28;20375;-73
2022/12/10 10:02:44;;;;;;;41.03;23.20;;;1.10;99.90;;;;;;5070811;28;20474;-73
2022/12/10 10:05:13;;;;;;;37.23;22.40;;;1.20;99.90;;;;;;5070243;28;20410;-73
2022/12/10 10:07:49;;;;;;;39.72;23.65;;;1.10;99.90;;;;;;5068875;28;20418;-73
2022/12/10 10:10:24;;;;;;;43.30;25.40;;;1.20;99.90;;;;;;5073055;28;20419;-73
2022/12/10 10:12:52;;;;;;;40.50;23.17;;;1.20;99.90;;;;;;5071873;28;20407;-72
2022/12/10 10:15:24;;;;;;;43.67;23.73;;;1.70;99.90;;;;;;5072792;28;20426;-72
2022/12/10 10:17:54;;;;;;;39.28;23.52;;;1.60;99.90;;;;;;5073354;28;20407;-73
2022/12/10 10:20:20;;;;;;;38.38;24.45;;;1.50;99.90;;;;;;5068418;28;20392;-73
2022/12/10 10:22:46;;;;;;;38.22;25.10;;;1.40;99.90;;;;;;5071469;28;20395;-73
2022/12/10 10:25:17;;;;;;;38.42;24.77;;;1.40;99.90;;;;;;5072749;28;20376;-73
2022/12/10 10:27:43;;;;;;;42.17;25.30;;;1.40;99.90;;;;;;5073133;28;20388;-72
2022/12/10 10:30:21;;;;;;;38.23;24.17;;;1.30;99.90;;;;;;5073158;28;20466;-72
2022/12/10 10:32:55;;;;;;;42.27;25.03;;;1.30;99.90;;;;;;5070905;28;20406;-73
2022/12/10 10:35:33;;;;;;;39.25;24.48;;;1.30;99.90;;;;;;5072934;28;20380;-73
2022/12/10 10:38:07;;;;;;;40.70;24.15;;;1.30;99.90;;;;;;5072797;28;20400;-72
2022/12/10 10:40:56;;;;;;;35.80;22.73;;;1.10;99.90;;;;;;5054049;28;20396;-73
2022/12/10 10:43:25;;;;;;;34.87;22.10;;;1.20;99.90;;;;;;5069810;28;20384;-72
2022/12/10 10:46:10;;;;;;;37.15;22.35;;;1.30;99.90;;;;;;5072775;28;20956;-72
2022/12/10 10:48:36;;;;;;;32.97;21.50;;;1.30;99.90;;;;;;5064510;28;20399;-72
2022/12/10 10:51:15;;;;;;;34.23;21.57;;;1.20;99.90;;;;;;5072170;28;20380;-72
2022/12/10 10:53:44;;;;;;;30.07;20.87;;;1.20;99.90;;;;;;5055253;28;20402;-72
2022/12/10 10:56:21;;;;;;;35.50;23.08;;;1.20;99.90;;;;;;5071940;28;20394;-72
2022/12/10 10:59:00;;;;;;;34.13;21.30;;;1.20;99.90;;;;;;5072042;28;20473;-72
2022/12/10 11:01:43;;;;;;;29.70;20.83;;;1.30;99.90;;;;;;5069810;28;20403;-72
2022/12/10 11:04:09;;;;;;;32.65;20.88;;;1.40;99.90;;;;;;5052549;28;20442;-72
2022/12/10 11:06:35;;;;;;;34.75;22.60;;;1.20;99.90;;;;;;5052897;28;20387;-72
2022/12/10 11:09:01;;;;;;;36.80;23.42;;;1.20;99.90;;;;;;5052515;28;20388;-71
2022/12/10 11:11:35;;;;;;;35.22;23.15;;;1.10;99.90;;;;;;5068084;28;20403;-71
2022/12/10 11:14:25;;;;;;;32.97;22.58;;;1.20;99.90;;;;;;5052376;28;20396;-70
2022/12/10 11:17:16;;;;;;;36.88;22.88;;;1.30;99.90;;;;;;5048466;28;20459;-71
2022/12/10 11:19:52;;;;;;;29.63;20.60;;;1.30;99.90;;;;;;5053590;28;20388;-71
2022/12/10 11:22:32;;;;;;;29.50;21.17;;;1.30;99.90;;;;;;5063585;28;20421;-71
2022/12/10 11:24:59;;;;;;;32.58;21.90;;;1.30;99.90;;;;;;5066160;28;20382;-70
2022/12/10 11:27:48;;;;;;;32.47;21.20;;;1.20;99.90;;;;;;5070892;28;20383;-70
2022/12/10 11:30:22;;;;;;;33.67;22.17;;;1.10;99.90;;;;;;5071427;28;20383;-70
2022/12/10 11:32:59;;;;;;;34.13;23.13;;;1.20;99.90;;;;;;5068304;28;20409;-70
2022/12/10 11:35:37;;;;;;;32.28;21.48;;;1.20;99.90;;;;;;5070941;28;20383;-70
2022/12/10 11:38:26;;;;;;;34.58;23.15;;;1.00;99.90;;;;;;5071228;28;20493;-69
2022/12/10 11:41:10;;;;;;;33.65;22.58;;;1.20;99.90;;;;;;5066043;28;20386;-69
2022/12/10 11:43:57;;;;;;;34.00;22.20;;;1.10;99.90;;;;;;5065540;28;20384;-70
2022/12/10 11:46:40;;;;;;;34.90;22.42;;;1.10;99.90;;;;;;5070970;28;20383;-70
2022/12/10 11:49:27;;;;;;;34.00;23.15;;;1.20;99.90;;;;;;5070281;28;20387;-71
2022/12/10 11:52:17;;;;;;;28.95;19.33;;;1.10;99.90;;;;;;5071494;28;20484;-70
2022/12/10 11:55:22;;;;;;;31.42;21.45;;;1.10;99.90;;;;;;5054684;28;20388;-70
2022/12/10 11:57:50;;;;;;;33.28;21.98;;;1.30;99.90;;;;;;5056996;28;20742;-70
2022/12/10 12:00:24;;;;;;;29.58;19.90;;;1.40;99.90;;;;;;5071503;28;20380;-70
2022/12/10 12:03:20;;;;;;;29.33;19.65;;;1.20;99.90;;;;;;5069316;28;20429;-71
2022/12/10 12:05:51;;;;;;;27.33;18.90;;;1.30;99.90;;;;;;5063513;28;20379;-70
2022/12/10 12:08:46;;;;;;;27.90;19.58;;;1.20;99.90;;;;;;5069540;28;20386;-70
2022/12/10 12:11:22;;;;;;;27.48;19.63;;;1.20;99.90;;;;;;5054455;28;20395;-71
2022/12/10 12:14:02;;;;;;;28.20;19.52;;;1.10;99.90;;;;;;5064382;28;20394;-70
2022/12/10 12:16:44;;;;;;;32.30;20.20;;;1.10;99.90;;;;;;5070774;28;20483;-71
2022/12/10 12:19:17;;;;;;;29.40;19.87;;;1.10;99.90;;;;;;5070899;28;20466;-71
2022/12/10 12:21:48;;;;;;;28.98;20.02;;;1.10;99.90;;;;;;5052370;28;20398;-71
2022/12/10 12:24:44;;;;;;;31.08;20.30;;;1.20;99.90;;;;;;5069813;28;20868;-72
2022/12/10 12:27:38;;;;;;;31.60;20.88;;;1.20;99.90;;;;;;5069963;28;20380;-71
2022/12/10 12:30:14;;;;;;;30.88;21.45;;;1.10;99.90;;;;;;5070987;28;20401;-70
2022/12/10 12:32:57;;;;;;;28.27;18.77;;;1.20;99.90;;;;;;5068970;28;20894;-70
2022/12/10 12:35:27;;;;;;;27.95;20.48;;;1.20;99.90;;;;;;5070587;28;20396;-70
2022/12/10 12:38:27;;;;;;;27.73;19.98;;;1.30;99.90;;;;;;5070449;28;20403;-70
2022/12/10 12:41:04;;;;;;;26.65;19.92;;;1.20;99.90;;;;;;5021776;28;20901;-70
2022/12/10 12:43:35;;;;;;;28.33;19.50;;;1.10;99.90;;;;;;5051362;28;20457;-70
2022/12/10 12:46:04;;;;;;;24.95;17.60;;;1.20;99.90;;;;;;5070846;28;20463;-70
2022/12/10 12:48:37;;;;;;;30.23;20.70;;;1.20;99.90;;;;;;5070288;28;20418;-70
2022/12/10 12:51:14;;;;;;;28.77;20.70;;;1.30;99.90;;;;;;5070257;28;20392;-70
2022/12/10 12:53:39;;;;;;;30.00;21.48;;;1.30;99.90;;;;;;5031742;28;20460;-70
2022/12/10 12:56:29;;;;;;;32.30;22.30;;;1.30;99.90;;;;;;5050460;28;20956;-70
2022/12/10 12:59:20;;;;;;;33.50;23.50;;;1.20;99.90;;;;;;5032663;28;20447;-70